Time;durP1;ratioP1;P1;durP2;ratioP2;P2;SDS_P1;SDS_P2;PMS_P1;PMS_P2;Temp;Humidity;BMP_temperature;BMP_pressure;BME280_temperature;BME280_humidity;BME280_pressure;Samples;Min_cycle;Max_cycle;Signal;HPM_P1;HPM_P2
2022/03/30 00:00:28;;;;;;;34.75;24.45;;;16.70;47.50;;;;;;5038052;28;20028;-56
2022/03/30 00:02:54;;;;;;;38.65;24.23;;;16.60;47.00;;;;;;5071740;28;20527;-56
2022/03/30 00:05:20;;;;;;;34.60;23.73;;;16.70;46.90;;;;;;5072211;28;20021;-55
2022/03/30 00:07:53;;;;;;;33.65;23.63;;;16.70;46.90;;;;;;5072607;28;20033;-56
2022/03/30 00:10:23;;;;;;;33.22;21.83;;;16.70;46.80;;;;;;5071141;28;20202;-57
2022/03/30 00:12:51;;;;;;;34.08;22.95;;;16.70;46.70;;;;;;5071402;28;20041;-56
2022/03/30 00:15:17;;;;;;;35.80;24.52;;;16.70;46.60;;;;;;5053924;28;20111;-56
2022/03/30 00:17:44;;;;;;;39.15;24.08;;;16.70;46.80;;;;;;5072079;28;20032;-54
2022/03/30 00:20:10;;;;;;;34.25;24.48;;;16.70;46.80;;;;;;5071982;28;20039;-56
2022/03/30 00:22:38;;;;;;;36.30;23.55;;;16.80;46.80;;;;;;5072094;28;20025;-55
2022/03/30 00:25:06;;;;;;;33.05;23.80;;;16.70;46.80;;;;;;5072099;28;20040;-53
2022/03/30 00:27:31;;;;;;;34.30;23.13;;;16.70;46.90;;;;;;5071878;28;20517;-56
2022/03/30 00:29:57;;;;;;;34.13;23.38;;;16.80;46.90;;;;;;5054228;28;20128;-56
2022/03/30 00:32:23;;;;;;;37.03;24.67;;;16.70;47.00;;;;;;5053628;28;20107;-52
2022/03/30 00:34:48;;;;;;;36.60;23.52;;;16.70;47.10;;;;;;5071822;28;20016;-58
2022/03/30 00:37:14;;;;;;;33.95;23.45;;;16.70;47.10;;;;;;5053489;28;20017;-56
2022/03/30 00:39:40;;;;;;;33.22;22.48;;;16.70;47.10;;;;;;5054043;28;20029;-58
2022/03/30 00:42:21;;;;;;;33.25;22.13;;;16.60;47.20;;;;;;5071935;28;20115;-58
2022/03/30 00:44:47;;;;;;;31.70;22.17;;;16.70;47.40;;;;;;5053952;28;20028;-56
2022/03/30 00:47:18;;;;;;;34.47;23.75;;;16.70;47.10;;;;;;5071159;28;20024;-57
2022/03/30 00:49:43;;;;;;;32.58;24.05;;;16.70;47.10;;;;;;5053842;28;20036;-57
2022/03/30 00:52:09;;;;;;;31.90;23.83;;;16.70;47.80;;;;;;5071870;28;20029;-59
2022/03/30 00:54:36;;;;;;;30.58;22.55;;;16.70;47.10;;;;;;5053277;28;20024;-56
2022/03/30 00:57:05;;;;;;;36.22;24.02;;;16.70;47.10;;;;;;5053564;28;20024;-57
2022/03/30 00:59:32;;;;;;;34.95;23.45;;;16.70;47.30;;;;;;5070588;28;20041;-59
2022/03/30 01:01:59;;;;;;;29.60;21.70;;;16.60;47.40;;;;;;5071460;28;20024;-57
2022/03/30 01:04:26;;;;;;;36.50;24.00;;;16.60;47.40;;;;;;5053210;28;20028;-54
2022/03/30 01:06:52;;;;;;;35.88;23.10;;;16.60;47.40;;;;;;5053466;28;20045;-59
2022/03/30 01:09:18;;;;;;;33.85;24.13;;;16.60;47.40;;;;;;5070964;28;20099;-56
2022/03/30 01:11:44;;;;;;;33.42;23.60;;;16.60;47.50;;;;;;5053442;28;20020;-56
2022/03/30 01:14:12;;;;;;;34.17;23.13;;;16.50;47.60;;;;;;5053445;28;20017;-53
2022/03/30 01:16:40;;;;;;;31.83;23.83;;;16.50;47.80;;;;;;5071338;28;20017;-52
2022/03/30 01:19:08;;;;;;;29.75;22.83;;;16.40;47.90;;;;;;5071574;28;20078;-55
2022/03/30 01:21:53;;;;;;;38.22;23.17;;;16.30;48.10;;;;;;5052053;28;20024;-57
2022/03/30 01:24:18;;;;;;;30.88;21.50;;;16.30;48.30;;;;;;5052025;28;20017;-58
2022/03/30 01:26:44;;;;;;;30.05;21.35;;;16.30;48.00;;;;;;5070715;28;20021;-57
2022/03/30 01:34:40;;;;;;;31.75;21.42;;;16.30;48.10;;;;;;5070840;28;20132;-58
2022/03/30 01:37:06;;;;;;;30.45;21.45;;;16.30;48.20;;;;;;5052755;28;20077;-57
2022/03/30 01:39:32;;;;;;;31.98;21.42;;;16.20;48.20;;;;;;5070395;28;20024;-53
2022/03/30 01:41:58;;;;;;;29.67;21.23;;;16.20;48.30;;;;;;5071023;28;20047;-58
2022/03/30 01:44:24;;;;;;;26.00;20.50;;;16.20;48.30;;;;;;5070263;28;20028;-53
2022/03/30 01:46:51;;;;;;;32.92;22.30;;;16.20;48.40;;;;;;5071336;28;20364;-56
2022/03/30 01:49:21;;;;;;;29.52;19.73;;;16.20;48.40;;;;;;5051832;28;20016;-56
2022/03/30 01:51:51;;;;;;;26.65;20.55;;;16.10;48.40;;;;;;5071080;28;20033;-53
2022/03/30 01:54:17;;;;;;;30.23;21.55;;;16.10;48.50;;;;;;5070429;28;20021;-58
2022/03/30 01:56:43;;;;;;;33.38;21.15;;;16.10;48.50;;;;;;5070782;28;20032;-51
2022/03/30 01:59:09;;;;;;;29.85;20.77;;;16.10;48.60;;;;;;5070901;28;20098;-54
2022/03/30 02:01:35;;;;;;;30.45;20.73;;;16.00;48.60;;;;;;5052565;28;20416;-55
2022/03/30 02:04:00;;;;;;;30.15;22.25;;;16.00;48.80;;;;;;5070289;28;20451;-55
2022/03/30 02:06:27;;;;;;;33.80;22.02;;;16.00;49.40;;;;;;5069963;28;20036;-53
2022/03/30 02:08:53;;;;;;;31.38;21.73;;;16.00;48.90;;;;;;5070846;28;20032;-55
2022/03/30 02:11:18;;;;;;;27.83;20.23;;;15.90;49.00;;;;;;5071398;28;20170;-55
2022/03/30 02:13:44;;;;;;;28.58;21.17;;;15.90;49.10;;;;;;5056525;28;20032;-55
2022/03/30 02:16:10;;;;;;;29.38;21.80;;;15.90;49.20;;;;;;5074595;28;20384;-56
2022/03/30 02:18:36;;;;;;;32.50;22.00;;;15.80;49.30;;;;;;5055949;28;20090;-55
2022/03/30 02:21:01;;;;;;;29.95;22.00;;;15.80;49.40;;;;;;5074200;28;20032;-55
2022/03/30 02:23:27;;;;;;;27.35;21.40;;;15.80;49.80;;;;;;5055694;28;20021;-57
2022/03/30 02:25:53;;;;;;;30.67;20.95;;;15.70;49.70;;;;;;5074164;28;20020;-54
2022/03/30 02:28:38;;;;;;;30.92;22.73;;;15.70;50.30;;;;;;5055104;28;20070;-57
2022/03/30 02:31:04;;;;;;;36.50;22.15;;;15.70;50.20;;;;;;5056315;28;20032;-57
2022/03/30 02:33:29;;;;;;;36.65;23.15;;;15.60;50.20;;;;;;5055752;28;20180;-55
2022/03/30 02:35:56;;;;;;;32.90;22.00;;;15.50;50.60;;;;;;5074055;28;20108;-57
2022/03/30 02:38:22;;;;;;;32.72;22.23;;;15.40;51.20;;;;;;5073493;28;20033;-59
2022/03/30 02:40:47;;;;;;;31.42;22.15;;;15.30;51.30;;;;;;5073973;28;20082;-57
2022/03/30 02:43:16;;;;;;;32.50;23.23;;;15.30;51.40;;;;;;5074099;28;20424;-56
2022/03/30 02:45:42;;;;;;;32.42;22.00;;;15.30;51.60;;;;;;5074016;28;20137;-59
2022/03/30 02:48:28;;;;;;;33.65;23.42;;;15.30;51.40;;;;;;5073796;28;20130;-57
2022/03/30 02:50:59;;;;;;;32.53;22.15;;;15.30;51.40;;;;;;5055997;28;20469;-57
2022/03/30 02:53:25;;;;;;;37.38;22.65;;;15.40;51.30;;;;;;5055484;28;20032;-56
2022/03/30 02:55:51;;;;;;;37.00;23.63;;;15.40;51.20;;;;;;5073651;28;20103;-57
2022/03/30 02:58:19;;;;;;;31.58;23.80;;;15.40;51.20;;;;;;5054881;28;20044;-58
2022/03/30 03:00:45;;;;;;;34.80;22.35;;;15.40;51.20;;;;;;5073843;28;20070;-58
2022/03/30 03:03:11;;;;;;;31.45;21.90;;;15.50;51.10;;;;;;5039046;28;20090;-55
2022/03/30 03:05:38;;;;;;;36.65;23.70;;;15.50;51.10;;;;;;5038673;28;20453;-57
2022/03/30 03:08:06;;;;;;;32.25;22.85;;;15.50;51.20;;;;;;5073540;28;20040;-59
2022/03/30 03:10:34;;;;;;;34.42;23.92;;;15.40;51.50;;;;;;5073222;28;20036;-56
2022/03/30 03:13:03;;;;;;;33.67;22.88;;;15.40;51.50;;;;;;5073494;28;20036;-57
2022/03/30 03:15:32;;;;;;;34.00;24.52;;;15.40;51.60;;;;;;5073126;28;20089;-59
2022/03/30 03:17:58;;;;;;;34.20;24.35;;;15.40;51.70;;;;;;5055855;28;20028;-58
2022/03/30 03:20:25;;;;;;;31.98;24.38;;;15.40;51.80;;;;;;5073011;28;20035;-57
2022/03/30 03:22:51;;;;;;;34.50;24.27;;;15.40;51.90;;;;;;5055116;28;20485;-57
2022/03/30 03:25:16;;;;;;;33.05;25.80;;;15.30;52.10;;;;;;5055359;28;20036;-57
2022/03/30 03:27:43;;;;;;;35.47;26.15;;;15.30;52.20;;;;;;5072807;28;20029;-57
2022/03/30 03:30:09;;;;;;;38.38;25.55;;;15.30;52.30;;;;;;5073323;28;20031;-56
2022/03/30 03:32:35;;;;;;;34.63;24.85;;;15.40;52.30;;;;;;5072349;28;20021;-55
2022/03/30 03:35:02;;;;;;;32.75;24.60;;;15.30;52.50;;;;;;5073424;28;20025;-56
2022/03/30 03:37:28;;;;;;;34.13;24.55;;;15.30;52.60;;;;;;5072542;28;20033;-57
2022/03/30 03:39:53;;;;;;;35.60;24.48;;;15.30;52.50;;;;;;5073056;28;20132;-53
2022/03/30 03:42:19;;;;;;;34.72;24.45;;;15.30;52.50;;;;;;5054438;28;20073;-57
2022/03/30 03:44:45;;;;;;;33.90;23.92;;;15.30;52.20;;;;;;5054751;28;20074;-52
2022/03/30 03:47:10;;;;;;;32.78;24.00;;;15.40;52.00;;;;;;5072906;28;20027;-57
2022/03/30 03:49:37;;;;;;;32.45;23.23;;;15.40;51.70;;;;;;5072185;28;20119;-59
2022/03/30 03:52:05;;;;;;;34.83;23.75;;;15.40;51.60;;;;;;5054735;28;20024;-57
2022/03/30 03:54:31;;;;;;;38.50;23.92;;;15.40;51.50;;;;;;5054042;28;20029;-55
2022/03/30 03:56:57;;;;;;;36.15;24.23;;;15.40;51.60;;;;;;5054845;28;20367;-54
2022/03/30 03:59:23;;;;;;;34.35;24.23;;;15.40;51.70;;;;;;5072645;28;20055;-56
2022/03/30 04:01:49;;;;;;;34.65;24.35;;;15.40;51.70;;;;;;5072658;28;20023;-56
2022/03/30 04:04:16;;;;;;;41.70;26.15;;;15.40;51.80;;;;;;5055175;28;20035;-58
2022/03/30 04:06:42;;;;;;;36.30;25.20;;;15.30;51.90;;;;;;5072987;28;20052;-56
2022/03/30 04:09:08;;;;;;;37.65;25.13;;;15.30;52.00;;;;;;5055108;28;20126;-52
2022/03/30 04:11:34;;;;;;;36.90;26.45;;;15.30;52.20;;;;;;5072517;28;20031;-59
2022/03/30 04:14:00;;;;;;;41.28;25.80;;;15.30;52.20;;;;;;5072747;28;20479;-58
2022/03/30 04:16:26;;;;;;;32.78;24.45;;;15.20;52.30;;;;;;5054415;28;20028;-58
2022/03/30 04:18:51;;;;;;;39.78;26.08;;;15.20;52.30;;;;;;5072380;28;20048;-58
2022/03/30 04:21:17;;;;;;;34.50;24.55;;;15.10;52.40;;;;;;5071888;28;20060;-63
2022/03/30 04:23:43;;;;;;;35.55;24.92;;;15.10;52.30;;;;;;5072320;28;20106;-57
2022/03/30 04:26:12;;;;;;;37.05;24.90;;;15.10;52.70;;;;;;5072676;28;20096;-58
2022/03/30 04:28:40;;;;;;;34.10;23.10;;;15.10;52.70;;;;;;5071986;28;20033;-54
2022/03/30 04:31:10;;;;;;;39.00;23.58;;;15.10;52.50;;;;;;5072400;28;20032;-57
2022/03/30 04:33:37;;;;;;;36.92;25.75;;;15.10;52.30;;;;;;5051673;28;20531;-56
2022/03/30 04:36:03;;;;;;;40.60;25.23;;;15.20;52.20;;;;;;5053146;28;20020;-58
2022/03/30 04:38:30;;;;;;;62.67;27.20;;;15.20;52.10;;;;;;5053167;28;20036;-59
2022/03/30 04:40:55;;;;;;;40.70;24.80;;;15.20;52.10;;;;;;5071852;28;20176;-56
2022/03/30 04:43:21;;;;;;;39.45;24.70;;;15.30;52.10;;;;;;5053382;28;20131;-56
2022/03/30 04:45:47;;;;;;;41.92;25.60;;;15.30;52.00;;;;;;5071434;28;20094;-53
2022/03/30 04:48:13;;;;;;;39.15;25.40;;;15.30;52.00;;;;;;5053659;28;20064;-55
2022/03/30 04:50:38;;;;;;;37.30;25.10;;;15.20;52.10;;;;;;5053881;28;20509;-59
2022/03/30 04:53:04;;;;;;;42.67;27.45;;;15.20;52.20;;;;;;5053791;28;20059;-57
2022/03/30 04:55:31;;;;;;;41.47;24.40;;;15.20;52.20;;;;;;5053366;28;20032;-54
2022/03/30 04:57:57;;;;;;;36.97;23.17;;;15.10;52.10;;;;;;5071769;28;20052;-59
2022/03/30 05:00:23;;;;;;;38.58;25.00;;;15.10;52.30;;;;;;5053111;28;20178;-63
2022/03/30 05:02:48;;;;;;;39.83;23.85;;;15.00;52.50;;;;;;5053338;28;20116;-58
2022/03/30 05:05:14;;;;;;;36.42;22.95;;;14.90;52.80;;;;;;5071673;28;20021;-56
2022/03/30 05:07:40;;;;;;;36.88;23.42;;;14.80;52.80;;;;;;5070935;28;20025;-57
2022/03/30 05:10:10;;;;;;;36.40;23.25;;;14.90;52.80;;;;;;5071502;28;20116;-56
2022/03/30 05:12:35;;;;;;;39.55;23.90;;;14.90;52.80;;;;;;5071294;28;20021;-58
2022/03/30 05:15:01;;;;;;;33.13;22.58;;;14.80;52.90;;;;;;5071544;28;20389;-57
2022/03/30 05:17:27;;;;;;;35.50;24.25;;;14.80;53.10;;;;;;5052338;28;20036;-58
2022/03/30 05:19:52;;;;;;;42.38;23.23;;;14.80;53.10;;;;;;5071426;28;20028;-57
2022/03/30 05:22:19;;;;;;;40.42;24.23;;;14.70;53.30;;;;;;5071419;28;20103;-59
2022/03/30 05:24:44;;;;;;;36.33;24.67;;;14.70;53.40;;;;;;5036261;28;20116;-57
2022/03/30 05:27:11;;;;;;;37.92;25.50;;;14.70;53.30;;;;;;5053190;28;20127;-59
2022/03/30 05:29:37;;;;;;;35.03;23.55;;;14.90;53.20;;;;;;5052656;28;20535;-55
2022/03/30 05:32:03;;;;;;;37.90;24.13;;;15.00;52.90;;;;;;5070945;28;20033;-52
2022/03/30 05:34:28;;;;;;;41.42;23.73;;;15.20;52.70;;;;;;5069785;28;20036;-57
2022/03/30 05:36:57;;;;;;;37.28;23.95;;;15.30;52.30;;;;;;5070782;28;20028;-52
2022/03/30 05:39:22;;;;;;;40.72;24.55;;;15.30;52.10;;;;;;5052129;28;20036;-63
2022/03/30 05:41:48;;;;;;;38.40;26.10;;;15.40;51.80;;;;;;5052884;28;20466;-58
2022/03/30 05:44:14;;;;;;;41.92;24.85;;;15.50;51.60;;;;;;5069366;28;20464;-61
2022/03/30 05:46:40;;;;;;;43.50;25.67;;;15.60;51.40;;;;;;5072762;28;20020;-55
2022/03/30 05:49:06;;;;;;;43.25;25.40;;;15.80;51.20;;;;;;5056302;28;20032;-62
2022/03/30 05:51:33;;;;;;;38.33;25.52;;;15.90;50.80;;;;;;5055736;28;20365;-65
2022/03/30 05:53:59;;;;;;;46.35;26.45;;;16.00;50.50;;;;;;5074218;28;20024;-58
2022/03/30 05:59:11;;;;;;;47.92;27.08;;;16.10;50.10;;;;;;5074252;28;20134;-56
2022/03/30 06:01:38;;;;;;;43.08;26.30;;;16.10;50.00;;;;;;5073799;28;20445;-55
2022/03/30 06:04:04;;;;;;;58.25;27.88;;;16.20;49.80;;;;;;5074515;28;20028;-58
2022/03/30 06:06:30;;;;;;;44.78;27.60;;;16.30;49.60;;;;;;5073893;28;20419;-59
2022/03/30 06:08:56;;;;;;;48.78;28.10;;;16.40;49.20;;;;;;5075222;28;20036;-60
2022/03/30 06:11:21;;;;;;;56.20;28.08;;;16.30;49.30;;;;;;5073796;28;20101;-59
2022/03/30 06:13:47;;;;;;;65.97;29.60;;;16.30;49.50;;;;;;5054654;28;20024;-57
2022/03/30 06:16:16;;;;;;;70.90;28.15;;;16.30;49.50;;;;;;5074622;28;20029;-57
2022/03/30 06:18:45;;;;;;;63.83;28.98;;;16.50;49.30;;;;;;5055216;28;20028;-51
2022/03/30 06:21:12;;;;;;;53.40;29.15;;;16.70;48.90;;;;;;5055902;28;20032;-50
2022/03/30 06:23:38;;;;;;;51.13;27.35;;;16.70;48.70;;;;;;5054383;28;20051;-55
2022/03/30 06:26:05;;;;;;;45.05;25.95;;;16.80;48.70;;;;;;5057015;28;20056;-60
2022/03/30 06:28:31;;;;;;;47.45;27.02;;;16.90;48.30;;;;;;5071527;28;20153;-59
2022/03/30 06:30:57;;;;;;;52.20;27.27;;;17.10;47.90;;;;;;5073230;28;20056;-59
2022/03/30 06:33:23;;;;;;;54.97;26.80;;;17.10;47.70;;;;;;5072048;28;20473;-58
2022/03/30 06:35:48;;;;;;;49.13;28.83;;;17.20;47.40;;;;;;5054770;28;20103;-59
2022/03/30 06:38:14;;;;;;;44.40;28.13;;;17.20;47.20;;;;;;5073781;28;20032;-58
2022/03/30 06:40:40;;;;;;;58.50;28.15;;;17.30;47.20;;;;;;5054451;28;20032;-59
2022/03/30 06:43:06;;;;;;;61.22;27.95;;;17.30;46.90;;;;;;5072427;28;20355;-58
2022/03/30 06:45:31;;;;;;;45.95;25.42;;;17.30;47.00;;;;;;5072135;28;20032;-60
2022/03/30 06:47:57;;;;;;;49.15;27.63;;;17.60;46.80;;;;;;5073829;28;20069;-57
2022/03/30 06:50:24;;;;;;;53.47;27.42;;;17.90;46.20;;;;;;5053857;28;20071;-60
2022/03/30 06:52:49;;;;;;;54.45;27.65;;;18.00;45.80;;;;;;5055293;28;20484;-59
2022/03/30 06:55:17;;;;;;;62.47;27.90;;;18.10;45.30;;;;;;5054803;28;20020;-58
2022/03/30 06:57:43;;;;;;;40.45;28.35;;;18.10;45.60;;;;;;5054048;28;20074;-60
2022/03/30 07:00:13;;;;;;;48.97;28.52;;;18.20;44.90;;;;;;5073400;28;20025;-58
2022/03/30 07:02:39;;;;;;;48.88;27.55;;;18.00;44.80;;;;;;5054914;28;20103;-59
2022/03/30 07:05:06;;;;;;;45.72;27.17;;;18.00;45.00;;;;;;5054550;28;20040;-59
2022/03/30 07:10:18;;;;;;;40.03;26.13;;;18.30;44.60;;;;;;5073546;28;20493;-62
2022/03/30 07:12:50;;;;;;;50.08;27.58;;;18.60;44.00;;;;;;5054702;28;20056;-59
2022/03/30 07:15:18;;;;;;;59.00;28.30;;;18.80;43.50;;;;;;5054730;28;20466;-61
2022/03/30 07:17:55;;;;;;;37.40;25.35;;;19.00;43.20;;;;;;5052668;28;20110;-59
2022/03/30 07:20:23;;;;;;;42.08;27.25;;;18.80;43.00;;;;;;5071325;28;20458;-59
2022/03/30 07:22:50;;;;;;;53.38;26.50;;;18.50;43.90;;;;;;5055595;28;20016;-58
2022/03/30 07:25:19;;;;;;;35.17;25.95;;;18.50;43.40;;;;;;5071603;28;20086;-57
2022/03/30 07:27:51;;;;;;;35.47;25.02;;;18.60;43.20;;;;;;5053509;28;20036;-59
2022/03/30 07:30:19;;;;;;;36.53;24.27;;;18.70;42.90;;;;;;5071866;28;20028;-60
2022/03/30 07:32:47;;;;;;;44.15;25.65;;;18.90;42.40;;;;;;5053962;28;20074;-60
2022/03/30 07:35:15;;;;;;;52.38;27.65;;;19.00;41.90;;;;;;5072856;28;20028;-59
2022/03/30 07:37:42;;;;;;;35.88;24.35;;;19.20;41.70;;;;;;5070827;28;20303;-60
2022/03/30 07:40:09;;;;;;;49.92;25.80;;;19.60;40.90;;;;;;5053844;28;20078;-59
2022/03/30 07:42:36;;;;;;;38.78;24.27;;;19.70;40.40;;;;;;5071297;28;20020;-59
2022/03/30 07:45:03;;;;;;;35.85;24.95;;;19.80;40.20;;;;;;5053752;28;20039;-61
2022/03/30 07:47:31;;;;;;;39.28;24.90;;;19.80;39.30;;;;;;5071398;28;20039;-59
2022/03/30 07:49:57;;;;;;;53.08;25.85;;;20.00;39.60;;;;;;5072453;28;20036;-58
2022/03/30 07:52:23;;;;;;;59.13;27.92;;;20.00;38.60;;;;;;5054314;28;20027;-60
2022/03/30 07:54:49;;;;;;;31.77;24.15;;;20.00;38.70;;;;;;5073280;28;20519;-58
2022/03/30 07:57:15;;;;;;;32.20;23.38;;;19.90;38.40;;;;;;5054825;28;20111;-60
2022/03/30 07:59:41;;;;;;;34.67;24.50;;;19.60;38.80;;;;;;5071993;28;20049;-60
2022/03/30 08:02:09;;;;;;;38.67;26.25;;;19.30;39.20;;;;;;5072820;28;20075;-61
2022/03/30 08:04:35;;;;;;;38.22;23.92;;;19.10;39.90;;;;;;5055097;28;20039;-60
2022/03/30 08:07:00;;;;;;;50.55;26.63;;;19.00;40.20;;;;;;5072984;28;20377;-60
2022/03/30 08:09:26;;;;;;;46.17;26.17;;;18.90;40.40;;;;;;5072464;28;20469;-61
2022/03/30 08:11:53;;;;;;;41.30;24.67;;;18.80;40.70;;;;;;5072166;28;20503;-60
2022/03/30 08:14:38;;;;;;;63.70;30.10;;;18.60;40.90;;;;;;5072768;28;20029;-61
2022/03/30 08:17:04;;;;;;;55.35;29.23;;;18.40;41.30;;;;;;5072321;28;20036;-60
2022/03/30 08:19:30;;;;;;;80.80;29.02;;;18.10;41.60;;;;;;5071811;28;20025;-59
2022/03/30 08:24:40;;;;;;;37.63;22.55;;;18.30;41.20;;;;;;5071866;28;20034;-61
2022/03/30 08:27:05;;;;;;;42.60;23.92;;;18.20;40.90;;;;;;5072333;28;20032;-63
2022/03/30 08:29:31;;;;;;;68.03;25.35;;;18.10;40.90;;;;;;5053936;28;20197;-59
2022/03/30 08:31:57;;;;;;;48.95;25.15;;;18.20;41.10;;;;;;5054591;28;20078;-61
2022/03/30 08:34:25;;;;;;;55.78;26.50;;;18.10;41.20;;;;;;5053861;28;20377;-64
2022/03/30 08:36:51;;;;;;;42.65;24.25;;;18.00;41.90;;;;;;5072310;28;20023;-58
2022/03/30 08:39:18;;;;;;;44.97;25.52;;;18.20;42.00;;;;;;5071712;28;20033;-60
2022/03/30 08:41:45;;;;;;;43.53;26.33;;;18.40;41.80;;;;;;5053703;28;20216;-61
2022/03/30 08:44:16;;;;;;;37.50;25.75;;;18.50;42.50;;;;;;5071829;28;20032;-62
2022/03/30 08:46:45;;;;;;;59.90;29.75;;;18.60;41.90;;;;;;5071304;28;20021;-63
2022/03/30 08:49:10;;;;;;;49.42;27.33;;;18.70;41.60;;;;;;5053765;28;20119;-62
2022/03/30 08:51:41;;;;;;;43.05;25.45;;;18.70;41.30;;;;;;5071646;28;20112;-61
2022/03/30 08:54:10;;;;;;;48.88;25.65;;;18.50;41.70;;;;;;5071798;28;20051;-61
2022/03/30 08:56:37;;;;;;;39.30;24.27;;;18.80;41.50;;;;;;5071577;28;20017;-61
2022/03/30 08:59:11;;;;;;;57.58;26.67;;;18.80;41.00;;;;;;5071202;28;20055;-61
2022/03/30 09:01:39;;;;;;;47.50;26.20;;;18.80;40.90;;;;;;5071397;28;20032;-61
2022/03/30 09:04:11;;;;;;;38.10;25.25;;;18.80;40.60;;;;;;5053976;28;20021;-60
2022/03/30 09:06:45;;;;;;;35.90;24.33;;;18.80;40.80;;;;;;5071634;28;20058;-62
2022/03/30 09:09:11;;;;;;;39.38;24.05;;;19.00;40.40;;;;;;5038234;28;20032;-63
2022/03/30 09:12:01;;;;;;;32.83;22.20;;;19.10;39.90;;;;;;5071523;28;20044;-64
2022/03/30 09:14:29;;;;;;;33.70;23.30;;;19.30;39.10;;;;;;5070525;28;20162;-64
2022/03/30 09:17:06;;;;;;;37.13;24.58;;;19.30;39.10;;;;;;5071624;28;20024;-60
2022/03/30 09:19:40;;;;;;;34.55;23.13;;;19.40;39.30;;;;;;5052998;28;20512;-61
2022/03/30 09:22:08;;;;;;;34.78;23.70;;;19.70;38.80;;;;;;5053332;28;20035;-61
2022/03/30 09:24:37;;;;;;;33.30;23.65;;;19.50;38.40;;;;;;5053204;28;20021;-58
2022/03/30 09:27:04;;;;;;;32.97;23.15;;;19.40;38.50;;;;;;5053118;28;20119;-61
2022/03/30 09:29:32;;;;;;;32.42;22.38;;;19.60;38.40;;;;;;5071293;28;20099;-62
2022/03/30 09:32:03;;;;;;;33.33;22.20;;;19.90;38.10;;;;;;5071467;28;20023;-61
2022/03/30 09:34:33;;;;;;;33.85;23.23;;;20.10;37.90;;;;;;5071208;28;20157;-61
2022/03/30 09:36:59;;;;;;;32.83;23.40;;;20.10;37.80;;;;;;5053506;28;20422;-61
2022/03/30 09:39:33;;;;;;;35.70;24.85;;;20.10;37.80;;;;;;5037123;28;20078;-60
2022/03/30 09:42:00;;;;;;;41.20;24.52;;;19.90;37.90;;;;;;5053645;28;20063;-61
2022/03/30 09:44:30;;;;;;;56.25;27.15;;;19.70;38.40;;;;;;5071432;28;20036;-60
2022/03/30 09:47:07;;;;;;;36.05;24.08;;;19.80;38.60;;;;;;5053832;28;20462;-60
2022/03/30 09:49:45;;;;;;;39.70;24.88;;;19.90;38.40;;;;;;5052929;28;20060;-63
2022/03/30 09:52:18;;;;;;;38.47;23.75;;;20.00;37.90;;;;;;5071357;28;20481;-60
2022/03/30 09:54:55;;;;;;;43.75;26.52;;;20.00;37.80;;;;;;5053053;28;20078;-61
2022/03/30 09:57:26;;;;;;;35.30;23.20;;;19.90;38.00;;;;;;5053559;28;20036;-62
2022/03/30 09:59:58;;;;;;;30.30;23.15;;;19.90;38.20;;;;;;5052824;28;20098;-61
2022/03/30 10:02:24;;;;;;;38.90;22.48;;;19.80;38.40;;;;;;5071429;28;20059;-61
2022/03/30 10:04:51;;;;;;;35.05;22.48;;;19.70;38.50;;;;;;5052915;28;20036;-61
2022/03/30 10:07:17;;;;;;;33.58;23.33;;;19.70;38.30;;;;;;5053435;28;20466;-59
2022/03/30 10:09:43;;;;;;;38.78;21.73;;;19.80;38.30;;;;;;5052749;28;20054;-62
2022/03/30 10:12:12;;;;;;;38.85;21.95;;;19.70;38.30;;;;;;5071445;28;20033;-60
2022/03/30 10:14:39;;;;;;;40.03;23.95;;;19.90;38.10;;;;;;5052900;28;20029;-62
2022/03/30 10:17:05;;;;;;;43.20;22.60;;;19.90;38.00;;;;;;5053340;28;20123;-59
2022/03/30 10:19:32;;;;;;;40.47;22.02;;;19.90;37.60;;;;;;5052333;28;20116;-63
2022/03/30 10:22:19;;;;;;;31.10;20.15;;;19.70;37.70;;;;;;5071178;28;20362;-63
2022/03/30 10:25:22;;;;;;;33.63;19.95;;;19.80;37.30;;;;;;5052645;28;20029;-61
2022/03/30 10:27:56;;;;;;;36.45;19.52;;;19.60;37.60;;;;;;5070481;28;20043;-60
2022/03/30 10:30:29;;;;;;;48.53;30.98;;;19.50;37.30;;;;;;5070871;28;20031;-61
2022/03/30 10:33:00;;;;;;;42.90;22.77;;;19.40;37.50;;;;;;5071171;28;20173;-60
2022/03/30 10:35:40;;;;;;;30.90;19.45;;;19.40;37.80;;;;;;5055981;28;20017;-60
2022/03/30 10:38:06;;;;;;;25.77;17.73;;;19.60;37.40;;;;;;5056228;28;20473;-61
2022/03/30 10:40:32;;;;;;;32.35;19.55;;;19.70;37.10;;;;;;5074290;28;20032;-65
2022/03/30 10:43:03;;;;;;;35.35;21.35;;;19.80;37.00;;;;;;5074602;28;20028;-58
2022/03/30 10:45:29;;;;;;;32.95;21.50;;;19.90;37.20;;;;;;5074098;28;20028;-61
2022/03/30 10:48:22;;;;;;;30.67;20.33;;;20.00;37.20;;;;;;5073784;28;20044;-62
2022/03/30 10:50:58;;;;;;;36.47;21.25;;;19.90;37.20;;;;;;5073996;28;20063;-60
2022/03/30 10:56:18;;;;;;;34.35;19.75;;;19.90;37.30;;;;;;5074089;28;20040;-62
2022/03/30 10:58:53;;;;;;;36.40;19.88;;;19.80;37.10;;;;;;5055101;28;20076;-61
2022/03/30 11:01:29;;;;;;;33.47;20.02;;;19.80;37.20;;;;;;5056218;28;20024;-61
2022/03/30 11:03:59;;;;;;;32.67;21.58;;;19.90;37.10;;;;;;5055419;28;20055;-60
2022/03/30 11:06:26;;;;;;;31.77;21.23;;;20.10;36.90;;;;;;5073806;28;20021;-60
2022/03/30 11:08:51;;;;;;;30.90;20.00;;;20.20;37.00;;;;;;5055465;28;20090;-61
2022/03/30 11:11:20;;;;;;;37.17;20.10;;;20.20;36.90;;;;;;5056004;28;20021;-59
2022/03/30 11:13:46;;;;;;;37.55;20.48;;;20.20;36.90;;;;;;5073030;28;20028;-61
2022/03/30 11:16:13;;;;;;;31.63;19.80;;;20.20;37.10;;;;;;5073795;28;20032;-61
2022/03/30 11:19:02;;;;;;;30.73;20.45;;;20.00;37.60;;;;;;5054990;28;20059;-61
2022/03/30 11:21:30;;;;;;;33.38;21.10;;;19.80;38.00;;;;;;5055977;28;20033;-61
2022/03/30 11:24:06;;;;;;;38.83;21.38;;;19.80;38.20;;;;;;5073095;28;20113;-62
2022/03/30 11:26:52;;;;;;;28.13;19.85;;;20.00;38.20;;;;;;5056245;28;20085;-62
2022/03/30 11:29:40;;;;;;;31.80;20.42;;;20.30;37.80;;;;;;5041513;28;20036;-51
2022/03/30 11:32:39;;;;;;;29.15;20.42;;;20.40;37.80;;;;;;5073106;28;20111;-52
2022/03/30 11:35:09;;;;;;;27.08;20.40;;;20.60;37.70;;;;;;5003425;28;20043;-56
2022/03/30 11:37:41;;;;;;;24.55;20.42;;;20.80;37.40;;;;;;5072977;28;20056;-61
2022/03/30 11:40:09;;;;;;;31.48;21.13;;;20.80;37.50;;;;;;5073196;28;20035;-53
2022/03/30 11:42:40;;;;;;;31.45;20.83;;;20.80;37.50;;;;;;5054817;28;20024;-60
2022/03/30 11:45:14;;;;;;;32.90;21.30;;;20.70;37.50;;;;;;5055501;28;20024;-53
2022/03/30 11:47:54;;;;;;;39.03;19.40;;;20.80;37.60;;;;;;5072335;28;20055;-54
2022/03/30 11:50:31;;;;;;;30.58;19.90;;;20.80;37.50;;;;;;5054969;28;20032;-54
2022/03/30 11:53:00;;;;;;;26.40;19.75;;;20.70;37.50;;;;;;5055597;28;20024;-53
2022/03/30 11:55:28;;;;;;;29.20;19.85;;;20.70;37.80;;;;;;5072936;28;20028;-52
2022/03/30 11:57:55;;;;;;;31.27;20.85;;;20.40;38.10;;;;;;5072044;28;20120;-52
2022/03/30 12:00:23;;;;;;;30.48;20.40;;;20.50;38.30;;;;;;5072949;28;20029;-53
2022/03/30 12:02:50;;;;;;;27.33;20.02;;;20.70;38.20;;;;;;5071814;28;20515;-56
2022/03/30 12:05:16;;;;;;;27.48;18.77;;;20.80;37.80;;;;;;5073462;28;20024;-52
2022/03/30 12:07:42;;;;;;;33.80;19.40;;;20.60;37.90;;;;;;5072535;28;20199;-51
2022/03/30 12:10:14;;;;;;;27.08;19.13;;;20.70;38.00;;;;;;5072513;28;20150;-48
2022/03/30 12:12:42;;;;;;;31.20;17.92;;;20.70;38.10;;;;;;5071722;28;20111;-56
2022/03/30 12:15:09;;;;;;;28.40;19.30;;;20.60;37.90;;;;;;5054720;28;20115;-51
2022/03/30 12:17:36;;;;;;;27.67;18.15;;;20.60;38.00;;;;;;5054392;28;20063;-53
2022/03/30 12:20:05;;;;;;;27.63;18.52;;;20.60;37.90;;;;;;5071471;28;20105;-55
2022/03/30 12:22:32;;;;;;;24.42;17.95;;;20.50;38.10;;;;;;5054487;28;20024;-55
2022/03/30 12:24:57;;;;;;;32.00;19.35;;;20.40;38.40;;;;;;5053649;28;20105;-53
2022/03/30 12:27:25;;;;;;;29.40;17.90;;;20.40;38.50;;;;;;5072095;28;20033;-53
2022/03/30 12:29:55;;;;;;;26.77;17.27;;;20.50;38.20;;;;;;5071400;28;20465;-53
2022/03/30 12:32:26;;;;;;;16.85;13.35;;;20.40;38.00;;;;;;5071902;28;20489;-49
2022/03/30 12:35:14;;;;;;;21.98;13.07;;;20.20;36.60;;;;;;5053569;28;20491;-54
2022/03/30 12:37:43;;;;;;;26.13;14.13;;;19.90;37.10;;;;;;5053230;28;20033;-60
2022/03/30 12:40:20;;;;;;;17.10;13.70;;;20.00;37.20;;;;;;5071971;28;20025;-52
2022/03/30 12:42:48;;;;;;;19.67;13.68;;;20.00;37.10;;;;;;5071133;28;20021;-50
2022/03/30 12:45:15;;;;;;;23.23;13.45;;;19.80;37.50;;;;;;5071905;28;20024;-53
2022/03/30 12:47:55;;;;;;;19.48;13.27;;;19.70;37.70;;;;;;5053786;28;20040;-52
2022/03/30 12:50:30;;;;;;;21.98;14.15;;;19.60;38.10;;;;;;5054002;28;20039;-50